ADDS METAR Data INFO
IDs: Format: Raw Decoded Include TAF

Data at: 0751 UTC 24 May 2018

KARM 240735Z AUTO 00000KT 10SM SCT016 22/21 A3004 RMK AO2 T02210212
KARM 240715Z AUTO 00000KT 7SM SCT018 22/21 A3004 RMK AO2 T02200210
KARM 240655Z AUTO 00000KT 5SM BR CLR 22/21 A3004 RMK AO2 T02200210
KARM 240635Z AUTO 00000KT 10SM CLR 22/21 A3004 RMK AO2 T02230212
KARM 240615Z AUTO 00000KT 10SM CLR 23/21 A3005 RMK AO2 T02250213
KARM 240555Z AUTO 00000KT 10SM CLR 23/21 A3004 RMK AO2 T02250211 10276 20225 402860202
KARM 240535Z AUTO 08003KT 10SM CLR 23/21 A3005 RMK AO2 T02270214
KARM 240515Z AUTO 00000KT 10SM SCT018 SCT032 SCT038 23/21 A3004 RMK AO2 T02280214
KARM 240455Z AUTO 07003KT 10SM SCT018 SCT032 SCT038 23/21 A3005 RMK AO2 T02270212
KARM 240435Z AUTO 00000KT 10SM CLR 23/21 A3004 RMK AO2 T02270211
KARM 240415Z AUTO 00000KT 10SM CLR 23/21 A3004 RMK AO2 T02290211
KARM 240355Z AUTO 09003KT 10SM CLR 23/21 A3003 RMK AO2 T02310212
KARM 240335Z AUTO 06003KT 10SM CLR 23/21 A3003 RMK AO2 T02310211
KARM 240315Z AUTO 05003KT 10SM CLR 23/21 A3003 RMK AO2 T02310211
KARM 240255Z AUTO 00000KT 10SM CLR 24/21 A3002 RMK AO2 T02360211
KARM 240235Z AUTO 00000KT 10SM CLR 24/21 A3001 RMK AO2 T02410211
KARM 240215Z AUTO 11003KT 10SM CLR 25/21 A3001 RMK AO2 T02460210
KARM 240155Z AUTO 10003KT 10SM SCT020 25/21 A3001 RMK AO2 T02490207
KARM 240135Z AUTO 12005KT 10SM CLR 25/21 A3000 RMK AO2 T02540205
KARM 240115Z AUTO 12005KT 10SM CLR 26/20 A3000 RMK AO2 T02600201
KARM 240055Z AUTO 13006KT 10SM CLR 27/20 A2998 RMK AO2 T02650200
KARM 240035Z AUTO 12008KT 10SM CLR 27/20 A2998 RMK AO2 T02700200
KARM 240015Z AUTO 12009KT 10SM CLR 27/20 A2998 RMK AO2 T02730198
KARM 232355Z AUTO 10007KT 10SM CLR 27/20 A2999 RMK AO2 T02720200 10284 20262
KARM 232335Z AUTO 10007KT 10SM CLR 28/20 A2999 RMK AO2 T02790199
KARM 232315Z AUTO 12008KT 10SM CLR 28/20 A2999 RMK AO2 T02820195
KARM 232255Z AUTO 11009KT 10SM CLR 28/19 A2999 RMK AO2 T02830191
KARM 232235Z AUTO 11007KT 10SM CLR 28/20 A2999 RMK AO2 T02800195
KARM 232215Z AUTO 09007KT 10SM CLR 27/19 A3000 RMK AO2 T02710194
KARM 232155Z AUTO 10007KT 10SM CLR 27/19 A3000 RMK AO2 T02660192
KARM 232135Z AUTO 11008KT 10SM CLR 27/19 A3001 RMK AO2 LTG DSNT SE T02670191
KARM 232115Z AUTO 10008KT 10SM CLR 27/19 A3001 RMK AO2 T02700189
KARM 232055Z AUTO 11008KT 10SM CLR 27/18 A3002 RMK AO2 T02670180
KARM 232035Z AUTO 11007KT 10SM CLR 27/19 A3003 RMK AO2 LTG DSNT SE T02690187
KARM 232015Z AUTO 11010KT 10SM CLR 27/19 A3003 RMK AO2 LTG DSNT SE T02740194
KARM 231955Z AUTO 11007KT 10SM CLR 27/19 A3004 RMK AO2 LTG DSNT S AND NW T02680193
KARM 231935Z AUTO 10009KT 10SM CLR 26/20 A3005 RMK AO2 LTG DSNT E AND SE T02640201
KARM 231915Z AUTO 11010G15KT 10SM VCTS CLR 28/20 A3005 RMK AO2 LTG DSNT E THRU W T02760200
KARM 231855Z AUTO 11010KT 10SM VCTS CLR 27/20 A3004 RMK AO2 LTG DSNT ALQDS T02710195
KARM 231835Z AUTO 10008KT 10SM VCTS CLR 28/20 A3004 RMK AO2 LTG DSNT ALQDS T02800202
KARM 231815Z AUTO 14007KT 10SM VCTS CLR 28/20 A3005 RMK AO2 LTG DSNT ALQDS T02750199
KARM 231800Z AUTO 13008KT 10SM VCTS CLR 27/20 A3004 RMK AO2 LTG DSNT ALQDS T02700202
KARM 231735Z AUTO 12007KT 10SM SCT100 24/20 A3004 RMK AO2 LTG DSNT NE THRU S T02390196
KARM 231715Z AUTO 11006KT 10SM VCTS SCT100 23/20 A3004 RMK AO2 LTG DSNT ALQDS T02340200
KARM 231655Z AUTO 10010KT 10SM SCT029 SCT039 SCT055 24/19 A3004 RMK AO2 LTG DSNT NE THRU S T02350188
KARM 231635Z AUTO 14011KT 10SM -VCTSRA BKN029 BKN039 BKN055 26/17 A3004 RMK AO2 LTG DSNT NE THRU SE T02600171
KARM 231615Z AUTO 00000KT 10SM BKN027 BKN034 BKN040 28/21 A3003 RMK AO2 LTG DSNT NE THRU S T02820210
KARM 231555Z AUTO 16003KT 10SM VCTS SCT025 SCT032 SCT041 28/20 A3004 RMK AO2 LTG DSNT E AND SE T02800204
KARM 231535Z AUTO 00000KT 10SM CLR 28/21 A3004 RMK AO2 LTG DSNT NE THRU SE T02770211
KARM 231515Z AUTO 10004KT 10SM SCT018 SCT024 28/22 A3004 RMK AO2 LTG DSNT NE THRU SE T02830215
KARM 231455Z AUTO 14004KT 10SM SCT016 SCT027 28/22 A3004 RMK AO2 LTG DSNT NE T02750218
KARM 231435Z AUTO 13004KT 10SM SCT014 SCT027 27/23 A3004 RMK AO2 LTG DSNT NE T02730227
KARM 231415Z AUTO 13004KT 10SM CLR 27/23 A3004 RMK AO2 T02660228
KARM 231355Z AUTO 12004KT 10SM CLR 26/23 A3003 RMK AO2 T02600230
KARM 231335Z AUTO 10003KT 10SM CLR 25/23 A3003 RMK AO2 T02480232
KARM 231315Z AUTO 00000KT 10SM CLR 24/23 A3002 RMK AO2 T02380233
KARM 231255Z AUTO 00000KT 7SM CLR 23/23 A3001 RMK AO2 LTG DSNT E T02310226
KARM 231235Z AUTO 00000KT 4SM BR CLR 22/22 A3001 RMK AO2 T02230220
KARM 231215Z AUTO 00000KT 3SM -RA CLR 22/21 A3000 RMK AO2 T02180213
KARM 231155Z AUTO 08003KT 1SM BR VV007 21/21 A2999 RMK AO2 7//// T02100206 10221 20202
KARM 231135Z AUTO 00000KT 3/4SM BR VV005 21/21 A2998 RMK AO2 LTG DSNT E T02090205
KARM 231115Z AUTO 00000KT 1 1/4SM BR VV007 21/20 A2998 RMK AO2 T02070202
KARM 231055Z AUTO 00000KT 1 1/2SM BR VV007 21/20 A2997 RMK AO2 T02080203
KARM 231035Z AUTO 00000KT 1 1/2SM BR VV007 21/21 A2997 RMK AO2 T02100205
KARM 231015Z AUTO 00000KT 3SM BR CLR 21/20 A2997 RMK AO2 T02070202
KARM 230955Z AUTO 00000KT 4SM BR CLR 21/20 A2998 RMK AO2 T02050200
KARM 230935Z AUTO 00000KT 3SM BR CLR 21/20 A2998 RMK AO2 T02060200
KARM 230915Z AUTO 00000KT 1 1/4SM BR VV007 21/20 A2997 RMK AO2 T02070201
KARM 230855Z AUTO 00000KT 1 1/2SM BR VV007 21/20 A2997 RMK AO2 VIS 3/4V4 T02090202
KARM 230835Z AUTO 00000KT 1SM BR VV007 21/21 A2998 RMK AO2 T02120205
KARM 230815Z AUTO 00000KT 5SM BR SCT019 22/21 A2998 RMK AO2 T02170210
KARM 230755Z AUTO 00000KT 5SM BR SCT019 SCT026 22/21 A2998 RMK AO2 T02200211
KARM 230735Z AUTO 00000KT 5SM BR CLR 22/21 A2999 RMK AO2 T02160207
KARM 230715Z AUTO 00000KT 7SM CLR 22/21 A2999 RMK AO2 T02180208
KARM 230655Z AUTO 00000KT 10SM CLR 22/21 A2999 RMK AO2 T02170206
KARM 230635Z AUTO 00000KT 10SM CLR 22/21 A2999 RMK AO2 T02180206
KARM 230615Z AUTO 00000KT 10SM CLR 22/21 A2999 RMK AO2 T02200206
KARM 230555Z AUTO 08003KT 10SM CLR 22/21 A2999 RMK AO2 T02200206 10279 20220
KARM 230535Z AUTO 07003KT 10SM CLR 22/21 A2999 RMK AO2 T02210206
KARM 230515Z AUTO 07003KT 10SM CLR 22/21 A3000 RMK AO2 T02230206
KARM 230455Z AUTO 08004KT 10SM CLR 22/21 A3000 RMK AO2 T02240205
KARM 230435Z AUTO 07003KT 10SM CLR 23/21 A3000 RMK AO2 T02250205
KARM 230415Z AUTO 00000KT 10SM CLR 23/20 A3000 RMK AO2 T02250204
KARM 230400Z AUTO 08003KT 10SM CLR 23/20 A3000 RMK AO2 T02260204
KARM 230335Z AUTO 08003KT 10SM CLR 23/20 A2999 RMK AO2 T02280203
KARM 230315Z AUTO 09003KT 10SM CLR 23/20 A2999 RMK AO2 T02310203
KARM 230255Z AUTO 08003KT 10SM CLR 23/20 A2998 RMK AO2 T02320201
KARM 230235Z AUTO 12003KT 10SM CLR 24/20 A2997 RMK AO2 T02360202
KARM 230215Z AUTO 10003KT 10SM CLR 24/20 A2996 RMK AO2 T02390196
KARM 230155Z AUTO 00000KT 10SM CLR 24/20 A2995 RMK AO2 T02440196
KARM 230135Z AUTO 09003KT 10SM CLR 25/19 A2995 RMK AO2 T02500194
KARM 230115Z AUTO 11004KT 10SM CLR 26/19 A2994 RMK AO2 T02580192
KARM 230055Z AUTO 11005KT 10SM CLR 27/19 A2993 RMK AO2 T02660190
KARM 230035Z AUTO 11006KT 10SM CLR 27/18 A2993 RMK AO2 T02730183
KARM 230015Z AUTO 10007KT 10SM CLR 28/19 A2993 RMK AO2 T02760189
KARM 222355Z AUTO 10007KT 10SM CLR 28/19 A2993 RMK AO2 6//// T02800191
KARM 222335Z AUTO 08005KT 10SM CLR 28/20 A2994 RMK AO2 T02800195
KARM 222315Z AUTO 11006KT 10SM CLR 28/20 A2994 RMK AO2 T02760199
KARM 222255Z AUTO 11007KT 10SM CLR 28/19 A2994 RMK AO2 T02750189
KARM 222235Z AUTO 12009KT 10SM VCTS CLR 29/18 A2994 RMK AO2 LTG DSNT E AND SE T02870183
KARM 222215Z AUTO 06003KT 10SM CLR 27/19 A2994 RMK AO2 LTG DSNT SE T02650188
KARM 222200Z AUTO 04003KT 10SM CLR 26/18 A2994 RMK AO2 LTG DSNT E T02630178
KARM 222135Z AUTO 04009G15KT 10SM TS SCT035 SCT044 SCT070 27/18 A2996 RMK AO2 LTG DSNT N THRU SE T02680183
KARM 222115Z AUTO 20007KT 10SM VCTS CLR 29/17 A2996 RMK AO2 LTG DSNT E T02910173
KARM 222055Z AUTO 21008KT 10SM CLR 30/20 A2996 RMK AO2 LTG DSNT NE AND E T02950198
KARM 222035Z AUTO 19007KT 10SM CLR 30/20 A2997 RMK AO2 LTG DSNT E AND SW T03040196
KARM 222015Z AUTO 19007KT 10SM CLR 30/20 A2998 RMK AO2 LTG DSNT ALQDS T02950202
KARM 221955Z AUTO 20007KT 10SM CLR 29/19 A2998 RMK AO2 LTG DSNT N T02860186